Time;durP1;ratioP1;P1;durP2;ratioP2;P2;SDS_P1;SDS_P2;PMS_P1;PMS_P2;Temp;Humidity;BMP_temperature;BMP_pressure;BME280_temperature;BME280_humidity;BME280_pressure;Samples;Min_cycle;Max_cycle;Signal;HPM_P1;HPM_P2
2022/11/19 00:01:10;;;;;;;6.88;3.17;;;8.70;99.90;;;;;;5052939;28;20037;-72
2022/11/19 00:03:37;;;;;;;7.65;3.13;;;8.70;99.90;;;;;;5054355;28;20020;-73
2022/11/19 00:06:15;;;;;;;6.20;2.90;;;8.70;99.90;;;;;;5054601;28;20096;-73
2022/11/19 00:08:41;;;;;;;5.32;2.63;;;8.70;99.90;;;;;;5053513;28;20032;-72
2022/11/19 00:14:07;;;;;;;6.55;2.75;;;8.70;99.90;;;;;;5053296;28;20489;-73
2022/11/19 00:16:32;;;;;;;7.43;2.70;;;8.80;99.90;;;;;;5052106;28;20027;-73
2022/11/19 00:18:58;;;;;;;7.78;2.47;;;8.70;99.90;;;;;;5053692;28;20116;-73
2022/11/19 00:21:24;;;;;;;6.32;2.58;;;8.80;99.90;;;;;;5053933;28;20033;-72
2022/11/19 00:23:53;;;;;;;5.90;2.80;;;8.80;99.90;;;;;;5053147;28;20080;-73
2022/11/19 00:26:18;;;;;;;4.63;2.70;;;8.80;99.90;;;;;;5049870;28;20027;-72
2022/11/19 00:28:44;;;;;;;8.57;2.85;;;8.80;99.90;;;;;;5054113;28;20025;-73
2022/11/19 00:31:14;;;;;;;8.50;3.10;;;8.80;99.90;;;;;;5053584;28;20037;-73
2022/11/19 00:33:41;;;;;;;7.22;2.70;;;8.80;99.90;;;;;;5052174;28;20382;-73
2022/11/19 00:36:09;;;;;;;8.05;2.75;;;8.70;99.90;;;;;;5052978;28;20343;-73
2022/11/19 00:38:35;;;;;;;5.90;3.13;;;8.70;99.90;;;;;;5053525;28;20115;-73
2022/11/19 00:41:01;;;;;;;5.95;2.95;;;8.80;99.90;;;;;;5052866;28;20108;-73
2022/11/19 00:46:16;;;;;;;8.10;2.92;;;8.90;99.90;;;;;;5058966;28;20026;-72
2022/11/19 00:48:41;;;;;;;9.13;3.22;;;8.90;99.90;;;;;;5071874;28;20101;-72
2022/11/19 00:51:08;;;;;;;8.25;3.00;;;8.90;99.90;;;;;;5073237;28;20474;-73
2022/11/19 00:53:34;;;;;;;6.53;2.45;;;8.80;99.90;;;;;;5055255;28;20489;-73
2022/11/19 00:56:04;;;;;;;7.22;2.80;;;8.80;99.90;;;;;;5064973;28;20020;-72
2022/11/19 00:58:30;;;;;;;5.40;2.80;;;8.80;99.90;;;;;;5072723;28;20085;-73
2022/11/19 01:00:56;;;;;;;4.70;2.60;;;8.80;99.90;;;;;;5073123;28;20028;-73
2022/11/19 01:03:22;;;;;;;6.25;2.78;;;8.80;99.90;;;;;;5073640;28;20033;-73
2022/11/19 01:05:48;;;;;;;6.43;2.92;;;8.80;99.90;;;;;;5073665;28;20032;-72
2022/11/19 01:08:14;;;;;;;4.90;2.75;;;8.80;99.90;;;;;;5073800;28;20099;-72
2022/11/19 01:10:39;;;;;;;7.07;2.80;;;8.70;99.90;;;;;;5073321;28;20048;-73
2022/11/19 01:15:50;;;;;;;6.22;2.95;;;8.70;99.90;;;;;;5072998;28;20166;-78
2022/11/19 01:18:17;;;;;;;6.70;2.70;;;8.70;99.90;;;;;;5073268;28;20047;-73
2022/11/19 01:20:43;;;;;;;5.30;3.35;;;8.70;99.90;;;;;;5072104;28;20028;-73
2022/11/19 01:23:08;;;;;;;3.90;2.55;;;8.70;99.90;;;;;;5071588;28;20032;-73
2022/11/19 01:25:35;;;;;;;8.30;3.30;;;8.70;99.90;;;;;;5072946;28;20024;-73
2022/11/19 01:28:01;;;;;;;9.75;3.25;;;8.70;99.90;;;;;;5071489;28;20125;-73
2022/11/19 01:30:26;;;;;;;8.90;3.22;;;8.60;99.90;;;;;;5071980;28;20504;-72
2022/11/19 01:32:52;;;;;;;6.95;3.25;;;8.60;99.90;;;;;;5071522;28;20116;-73
2022/11/19 01:35:18;;;;;;;7.82;3.08;;;8.70;99.90;;;;;;5072184;28;20198;-72
2022/11/19 01:37:43;;;;;;;6.22;3.60;;;8.60;99.90;;;;;;5073055;28;20381;-73
2022/11/19 01:40:10;;;;;;;7.97;3.90;;;8.60;99.90;;;;;;5071193;28;20058;-73
2022/11/19 01:42:54;;;;;;;8.02;3.78;;;8.60;99.90;;;;;;5071316;28;20037;-72
2022/11/19 01:45:26;;;;;;;10.70;3.60;;;8.60;99.90;;;;;;5072030;28;20024;-73
2022/11/19 01:47:53;;;;;;;6.22;3.72;;;8.60;99.90;;;;;;5072147;28;20385;-75
2022/11/19 01:50:21;;;;;;;6.00;3.47;;;8.60;99.90;;;;;;5071684;28;20025;-72
2022/11/19 01:52:47;;;;;;;7.10;3.70;;;8.60;99.90;;;;;;5072896;28;20035;-72
2022/11/19 01:55:14;;;;;;;8.90;3.75;;;8.60;99.90;;;;;;5072342;28;20028;-72
2022/11/19 01:57:40;;;;;;;9.88;3.63;;;8.60;99.90;;;;;;5072647;28;20021;-72
2022/11/19 02:00:07;;;;;;;6.25;3.40;;;8.60;99.90;;;;;;5071008;28;20493;-72
2022/11/19 02:02:33;;;;;;;7.45;3.65;;;8.60;99.90;;;;;;5071546;28;20491;-72
2022/11/19 02:05:00;;;;;;;8.80;3.83;;;8.60;99.90;;;;;;5071057;28;20025;-73
2022/11/19 02:07:28;;;;;;;6.40;3.55;;;8.60;99.90;;;;;;5071210;28;20462;-73
2022/11/19 02:10:04;;;;;;;7.75;3.78;;;8.60;99.90;;;;;;5070861;28;20371;-73
2022/11/19 02:12:45;;;;;;;7.82;3.97;;;8.70;99.90;;;;;;5072377;28;20024;-72
2022/11/19 02:15:32;;;;;;;6.20;3.53;;;8.60;99.90;;;;;;5071021;28;20123;-72
2022/11/19 02:18:03;;;;;;;5.10;3.40;;;8.60;99.90;;;;;;5071024;28;20056;-73
2022/11/19 02:20:41;;;;;;;9.07;3.70;;;8.70;99.90;;;;;;5071298;28;20028;-72
2022/11/19 02:23:28;;;;;;;7.18;4.10;;;8.70;99.90;;;;;;5070834;28;20560;-73
2022/11/19 02:26:34;;;;;;;7.53;3.83;;;8.70;99.90;;;;;;5057784;28;20036;-80
2022/11/19 02:29:27;;;;;;;8.20;3.67;;;8.70;99.90;;;;;;5050703;28;20071;-73
2022/11/19 02:32:07;;;;;;;6.93;3.80;;;8.70;99.90;;;;;;5052538;28;20102;-73
2022/11/19 02:34:59;;;;;;;6.75;3.60;;;8.70;99.90;;;;;;5051237;28;20025;-72
2022/11/19 02:37:27;;;;;;;9.45;3.72;;;8.70;99.90;;;;;;5052535;28;20021;-73
2022/11/19 02:39:58;;;;;;;8.27;3.90;;;8.70;99.90;;;;;;5051058;28;20029;-72
2022/11/19 02:42:35;;;;;;;6.80;3.90;;;8.70;99.90;;;;;;5051310;28;20110;-73
2022/11/19 02:45:35;;;;;;;7.10;3.50;;;8.70;99.90;;;;;;5050816;28;20041;-73
2022/11/19 02:48:26;;;;;;;7.22;3.15;;;8.70;99.90;;;;;;5047281;28;20106;-73
2022/11/19 02:50:56;;;;;;;9.38;3.20;;;8.80;99.90;;;;;;5052396;28;20377;-73
2022/11/19 02:53:22;;;;;;;7.38;3.70;;;8.80;99.90;;;;;;5052278;28;20053;-73
2022/11/19 03:06:51;;;;;;;5.72;3.55;;;8.90;99.90;;;;;;5051957;28;20440;-73
2022/11/19 03:09:17;;;;;;;7.15;3.50;;;8.90;99.90;;;;;;5050421;28;20033;-73
2022/11/19 03:11:48;;;;;;;13.27;4.32;;;8.90;99.90;;;;;;5050770;28;20045;-72
2022/11/19 03:17:29;;;;;;;10.02;3.80;;;9.00;99.90;;;;;;5051629;28;20032;-73
2022/11/19 03:20:03;;;;;;;9.63;3.63;;;9.00;99.90;;;;;;5053383;28;20033;-73
2022/11/19 03:23:03;;;;;;;7.47;3.45;;;9.00;99.90;;;;;;5055752;28;20040;-73
2022/11/19 03:25:52;;;;;;;7.70;3.58;;;9.00;99.90;;;;;;5055662;28;20048;-73
2022/11/19 03:28:27;;;;;;;7.55;3.70;;;9.00;99.90;;;;;;5053060;28;20064;-73
2022/11/19 03:30:55;;;;;;;6.72;3.33;;;8.90;99.90;;;;;;5054356;28;20025;-72
2022/11/19 03:33:46;;;;;;;5.45;3.28;;;8.90;99.90;;;;;;5055222;28;20473;-73
2022/11/19 03:36:26;;;;;;;7.65;3.45;;;8.90;99.90;;;;;;5047796;28;20048;-73
2022/11/19 03:38:57;;;;;;;4.28;2.72;;;8.90;99.90;;;;;;5054034;28;20033;-73
2022/11/19 03:41:25;;;;;;;7.53;3.33;;;8.90;99.90;;;;;;5055540;28;20037;-73
2022/11/19 03:44:00;;;;;;;9.90;3.53;;;8.90;99.90;;;;;;5053605;28;20040;-73
2022/11/19 03:46:29;;;;;;;6.72;3.45;;;8.90;99.90;;;;;;5055254;28;20021;-73
2022/11/19 03:48:56;;;;;;;6.45;3.50;;;9.00;99.90;;;;;;5055309;28;20032;-73
2022/11/19 03:51:40;;;;;;;6.82;3.33;;;8.90;99.90;;;;;;5053278;28;20060;-72
2022/11/19 03:54:07;;;;;;;10.02;3.28;;;8.90;99.90;;;;;;5054429;28;20472;-75
2022/11/19 03:56:36;;;;;;;7.63;3.22;;;8.90;99.90;;;;;;5054685;28;20048;-72
2022/11/19 03:59:03;;;;;;;8.18;3.70;;;8.90;99.90;;;;;;5054438;28;20110;-73
2022/11/19 04:01:30;;;;;;;7.90;4.28;;;8.90;99.90;;;;;;5053762;28;20025;-73
2022/11/19 04:06:39;;;;;;;7.00;3.00;;;8.90;99.90;;;;;;5054984;28;20040;-73
2022/11/19 04:09:05;;;;;;;5.95;3.03;;;8.90;99.90;;;;;;5054309;28;20029;-73
2022/11/19 04:11:30;;;;;;;6.68;3.13;;;9.00;99.90;;;;;;5054249;28;20045;-72
2022/11/19 04:13:57;;;;;;;5.90;2.95;;;9.00;99.90;;;;;;5054578;28;20132;-72
2022/11/19 04:16:23;;;;;;;4.93;2.92;;;9.00;99.90;;;;;;5052838;28;20075;-73
2022/11/19 04:18:48;;;;;;;5.15;3.35;;;9.00;99.90;;;;;;5053362;28;20397;-73
2022/11/19 04:21:14;;;;;;;7.65;2.80;;;9.00;99.90;;;;;;5052802;28;20021;-73
2022/11/19 04:23:39;;;;;;;4.30;2.60;;;9.00;99.90;;;;;;5053134;28;20420;-73
2022/11/19 04:26:05;;;;;;;5.40;2.90;;;8.90;99.90;;;;;;5053697;28;20024;-74
2022/11/19 04:28:30;;;;;;;4.10;2.95;;;9.00;99.90;;;;;;5053065;28;20033;-73
2022/11/19 04:30:56;;;;;;;6.10;3.00;;;9.00;99.90;;;;;;5053191;28;20021;-73
2022/11/19 04:33:21;;;;;;;7.97;2.80;;;8.90;99.90;;;;;;5053635;28;20474;-73
2022/11/19 04:35:47;;;;;;;5.43;2.70;;;9.00;99.90;;;;;;5052998;28;20048;-73
2022/11/19 04:38:13;;;;;;;3.75;2.80;;;9.00;99.90;;;;;;5052481;28;20029;-73
2022/11/19 04:40:38;;;;;;;7.68;3.05;;;8.90;99.90;;;;;;5052741;28;20401;-73
2022/11/19 04:43:04;;;;;;;3.97;2.50;;;8.90;99.90;;;;;;5053623;28;20139;-73
2022/11/19 04:45:30;;;;;;;7.60;2.60;;;8.90;99.90;;;;;;5054078;28;20025;-73
2022/11/19 04:47:56;;;;;;;7.25;2.90;;;8.90;99.90;;;;;;5053705;28;20052;-73
2022/11/19 04:50:21;;;;;;;5.40;2.90;;;8.90;99.90;;;;;;5053337;28;20220;-73
2022/11/19 04:52:47;;;;;;;4.90;2.70;;;8.90;99.90;;;;;;5052775;28;20029;-72
2022/11/19 04:55:13;;;;;;;4.18;2.70;;;8.90;99.90;;;;;;5051883;28;20100;-73
2022/11/19 04:57:38;;;;;;;8.00;3.17;;;8.90;99.90;;;;;;5052773;28;20082;-72
2022/11/19 05:00:05;;;;;;;8.32;3.28;;;8.90;99.90;;;;;;5052009;28;20375;-73
2022/11/19 05:02:30;;;;;;;6.90;3.35;;;8.90;99.90;;;;;;5053516;28;20071;-72
2022/11/19 05:04:56;;;;;;;5.95;2.92;;;8.90;99.90;;;;;;5053541;28;20422;-72
2022/11/19 05:07:21;;;;;;;5.63;2.80;;;8.90;99.90;;;;;;5053170;28;20149;-72
2022/11/19 05:09:47;;;;;;;7.70;3.60;;;8.80;99.90;;;;;;5052514;28;20044;-72
2022/11/19 05:12:12;;;;;;;5.57;3.10;;;8.80;99.90;;;;;;5051611;28;20052;-72
2022/11/19 05:14:38;;;;;;;6.28;3.17;;;8.90;99.90;;;;;;5052191;28;20127;-73
2022/11/19 05:17:04;;;;;;;8.20;3.13;;;8.90;99.90;;;;;;5053144;28;20028;-77
2022/11/19 05:19:30;;;;;;;10.18;3.55;;;8.80;99.90;;;;;;5053365;28;20082;-72
2022/11/19 05:21:56;;;;;;;5.88;3.50;;;8.80;99.90;;;;;;5052152;28;20033;-72
2022/11/19 05:24:21;;;;;;;6.75;3.42;;;8.80;99.90;;;;;;5052801;28;20035;-72
2022/11/19 05:26:47;;;;;;;8.18;3.67;;;8.80;99.90;;;;;;5053001;28;20466;-72
2022/11/19 05:29:12;;;;;;;6.38;3.40;;;8.90;99.90;;;;;;5051518;28;20087;-73
2022/11/19 05:31:38;;;;;;;6.57;3.70;;;8.80;99.90;;;;;;5051972;28;20025;-72
2022/11/19 05:34:03;;;;;;;6.80;3.90;;;8.80;99.90;;;;;;5052013;28;20056;-72
2022/11/19 05:36:29;;;;;;;5.40;2.95;;;8.80;99.90;;;;;;5052807;28;20374;-72
2022/11/19 05:38:55;;;;;;;5.97;3.50;;;8.80;99.90;;;;;;5053169;28;20490;-72
2022/11/19 05:41:20;;;;;;;6.88;3.75;;;8.80;99.90;;;;;;5051920;28;20082;-73
2022/11/19 05:43:46;;;;;;;5.70;3.45;;;8.80;99.90;;;;;;5051942;28;20036;-72
2022/11/19 05:46:12;;;;;;;8.02;4.05;;;8.80;99.90;;;;;;5052521;28;20037;-72
2022/11/19 05:48:37;;;;;;;7.63;3.42;;;8.80;99.90;;;;;;5052887;28;20029;-72
2022/11/19 05:51:03;;;;;;;6.60;3.78;;;8.80;99.90;;;;;;5051555;28;20044;-73
2022/11/19 05:53:28;;;;;;;8.00;3.22;;;8.80;99.90;;;;;;5051144;28;20029;-73
2022/11/19 05:55:54;;;;;;;6.05;3.10;;;8.80;99.90;;;;;;5051461;28;20055;-72
2022/11/19 05:58:19;;;;;;;8.35;3.15;;;8.80;99.90;;;;;;5052348;28;20025;-72
2022/11/19 06:00:45;;;;;;;5.10;3.20;;;8.80;99.90;;;;;;5052756;28;20090;-73
2022/11/19 06:03:11;;;;;;;7.70;2.97;;;8.80;99.90;;;;;;5052534;28;20037;-72
2022/11/19 06:05:36;;;;;;;5.85;2.88;;;8.80;99.90;;;;;;5051448;28;20060;-72
2022/11/19 06:08:02;;;;;;;7.13;2.70;;;8.80;99.90;;;;;;5052655;28;20037;-73
2022/11/19 06:10:27;;;;;;;3.05;2.42;;;8.80;99.90;;;;;;5050359;28;20048;-72
2022/11/19 06:12:53;;;;;;;4.40;2.40;;;8.80;99.90;;;;;;5052340;28;20029;-72
2022/11/19 06:15:19;;;;;;;5.97;2.70;;;8.90;99.90;;;;;;5050894;28;20056;-72
2022/11/19 06:17:44;;;;;;;6.68;2.70;;;8.90;99.90;;;;;;5051343;28;20032;-72
2022/11/19 06:20:10;;;;;;;3.47;2.58;;;8.90;99.90;;;;;;5050848;28;20029;-73
2022/11/19 06:22:36;;;;;;;6.18;2.45;;;8.90;99.90;;;;;;5051338;28;20032;-73
2022/11/19 06:25:04;;;;;;;4.95;2.53;;;8.80;99.90;;;;;;5051255;28;20020;-72
2022/11/19 06:27:29;;;;;;;5.88;2.30;;;8.80;99.90;;;;;;5050828;28;20057;-73
2022/11/19 06:29:55;;;;;;;5.18;2.70;;;8.80;99.90;;;;;;5051272;28;20114;-72
2022/11/19 06:32:20;;;;;;;5.35;2.80;;;8.70;99.90;;;;;;5050812;28;20067;-73
2022/11/19 06:34:46;;;;;;;5.63;3.33;;;8.70;99.90;;;;;;5052724;28;20442;-72
2022/11/19 06:37:12;;;;;;;4.78;2.90;;;8.70;99.90;;;;;;5050793;28;20041;-72
2022/11/19 06:39:37;;;;;;;4.60;2.95;;;8.70;99.90;;;;;;5051997;28;20473;-72
2022/11/19 06:44:47;;;;;;;5.53;2.80;;;8.80;99.90;;;;;;5052329;28;20489;-72
2022/11/19 06:47:13;;;;;;;5.88;3.08;;;8.80;99.90;;;;;;5051868;28;20100;-73
2022/11/19 06:49:39;;;;;;;7.05;4.20;;;8.80;99.90;;;;;;5052308;28;20083;-72
2022/11/19 06:52:04;;;;;;;8.35;3.95;;;8.80;99.90;;;;;;5051042;28;20021;-72
2022/11/19 06:54:30;;;;;;;7.00;3.45;;;8.80;99.90;;;;;;5053614;28;20082;-72
2022/11/19 06:56:55;;;;;;;7.20;3.75;;;8.80;99.90;;;;;;5056131;28;20033;-72
2022/11/19 06:59:21;;;;;;;6.38;3.20;;;8.80;99.90;;;;;;5055755;28;20037;-72
2022/11/19 07:01:46;;;;;;;11.02;4.95;;;8.80;99.90;;;;;;5056055;28;20067;-72
2022/11/19 07:04:12;;;;;;;6.30;3.72;;;8.90;99.90;;;;;;5054354;28;20393;-72
2022/11/19 07:06:38;;;;;;;8.05;3.35;;;8.80;99.90;;;;;;5054392;28;20028;-72
2022/11/19 07:09:03;;;;;;;7.85;3.30;;;8.80;99.90;;;;;;5055647;28;20025;-73
2022/11/19 07:11:29;;;;;;;5.43;3.40;;;8.80;99.90;;;;;;5053880;28;20049;-72
2022/11/19 07:13:56;;;;;;;5.43;3.40;;;8.80;99.90;;;;;;5055785;28;20031;-72
2022/11/19 07:16:27;;;;;;;6.00;3.38;;;8.80;99.90;;;;;;5054118;28;20050;-73
2022/11/19 07:18:55;;;;;;;7.65;2.92;;;8.80;99.90;;;;;;5055668;28;20052;-72
2022/11/19 07:21:20;;;;;;;5.47;3.20;;;8.80;99.90;;;;;;5055600;28;20033;-73
2022/11/19 07:23:46;;;;;;;6.57;3.03;;;8.80;99.90;;;;;;5054660;28;20028;-73
2022/11/19 07:26:12;;;;;;;5.82;3.50;;;8.80;99.90;;;;;;5055305;28;20505;-82
2022/11/19 07:28:38;;;;;;;8.75;3.50;;;8.80;99.90;;;;;;5055505;28;20021;-72
2022/11/19 07:31:05;;;;;;;6.45;3.50;;;8.80;99.90;;;;;;5055485;28;20108;-72
2022/11/19 07:33:31;;;;;;;6.63;3.78;;;8.80;99.90;;;;;;5055008;28;20505;-73
2022/11/19 07:35:57;;;;;;;7.20;3.85;;;8.80;99.90;;;;;;5054173;28;20120;-72
2022/11/19 07:38:23;;;;;;;10.50;3.75;;;8.80;99.90;;;;;;5053424;28;20056;-73
2022/11/19 07:40:52;;;;;;;5.18;3.55;;;8.90;99.90;;;;;;5055344;28;20041;-72
2022/11/19 07:43:18;;;;;;;7.47;3.33;;;8.90;99.90;;;;;;5054708;28;20064;-74
2022/11/19 07:45:44;;;;;;;8.70;4.28;;;8.90;99.90;;;;;;5055201;28;20439;-73
2022/11/19 07:48:09;;;;;;;7.30;4.10;;;8.90;99.90;;;;;;5053952;28;20029;-73
2022/11/19 07:50:35;;;;;;;8.43;4.40;;;8.90;99.90;;;;;;5054716;28;20028;-73
2022/11/19 07:53:01;;;;;;;6.60;4.18;;;8.90;99.90;;;;;;5053906;28;20056;-73
2022/11/19 07:55:27;;;;;;;5.43;3.80;;;8.90;99.90;;;;;;5054618;28;20060;-73
2022/11/19 07:57:53;;;;;;;7.65;3.67;;;8.90;99.90;;;;;;5055045;28;20167;-73
2022/11/19 08:00:19;;;;;;;6.75;3.90;;;8.90;99.90;;;;;;5053259;28;20033;-73
2022/11/19 08:02:44;;;;;;;6.97;3.33;;;9.00;99.90;;;;;;5055273;28;20040;-73
2022/11/19 08:05:10;;;;;;;5.03;2.90;;;9.00;99.90;;;;;;5053261;28;20025;-73
2022/11/19 08:07:37;;;;;;;6.68;3.40;;;9.00;99.90;;;;;;5054103;28;20467;-73
2022/11/19 08:10:05;;;;;;;7.32;2.90;;;9.00;99.90;;;;;;5053263;28;20033;-73
2022/11/19 08:12:31;;;;;;;8.10;3.90;;;9.00;99.90;;;;;;5052954;28;20028;-73
2022/11/19 08:14:57;;;;;;;5.88;3.20;;;9.10;99.90;;;;;;5055012;28;20051;-73
2022/11/19 08:20:07;;;;;;;6.38;3.35;;;9.10;99.90;;;;;;5054392;28;20044;-73
2022/11/19 08:22:34;;;;;;;7.97;3.30;;;9.10;99.90;;;;;;5052525;28;20112;-73
2022/11/19 08:25:00;;;;;;;13.60;3.78;;;9.10;99.90;;;;;;5054217;28;20388;-73
2022/11/19 08:27:26;;;;;;;6.85;3.35;;;9.10;99.90;;;;;;5052764;28;20029;-73
2022/11/19 08:29:51;;;;;;;8.27;3.55;;;9.10;99.90;;;;;;5053236;28;20025;-73
2022/11/19 08:32:17;;;;;;;11.52;3.22;;;9.10;99.90;;;;;;5052677;28;20021;-73
2022/11/19 08:34:42;;;;;;;7.57;3.40;;;9.10;99.90;;;;;;5054594;28;20036;-73
2022/11/19 08:37:10;;;;;;;6.50;3.38;;;9.00;99.90;;;;;;5053091;28;20021;-73
2022/11/19 08:39:35;;;;;;;6.80;2.85;;;9.00;99.90;;;;;;5052299;28;20205;-74
2022/11/19 08:44:45;;;;;;;7.82;2.72;;;9.00;99.90;;;;;;5054219;28;20037;-72
2022/11/19 08:47:11;;;;;;;6.28;2.90;;;9.10;99.90;;;;;;5052987;28;20029;-73
2022/11/19 08:49:36;;;;;;;6.53;2.20;;;9.10;99.90;;;;;;5052390;28;20043;-73
2022/11/19 08:52:02;;;;;;;5.60;2.35;;;9.10;99.90;;;;;;5052737;28;20363;-73
2022/11/19 08:54:28;;;;;;;6.35;2.05;;;9.10;99.90;;;;;;5052195;28;20029;-73
2022/11/19 08:56:53;;;;;;;8.20;2.20;;;9.00;99.90;;;;;;5052730;28;20032;-73
2022/11/19 08:59:20;;;;;;;2.97;1.95;;;9.10;99.90;;;;;;5052186;28;20033;-75
2022/11/19 09:01:47;;;;;;;6.15;2.00;;;9.10;99.90;;;;;;5052757;28;20469;-73
2022/11/19 09:04:12;;;;;;;4.55;1.50;;;9.10;99.90;;;;;;5052644;28;20086;-73
2022/11/19 09:06:38;;;;;;;8.38;1.50;;;9.10;99.90;;;;;;5052003;28;20064;-72
2022/11/19 09:09:04;;;;;;;3.38;1.40;;;9.10;99.90;;;;;;5053879;28;20036;-72
2022/11/19 09:11:29;;;;;;;4.25;1.63;;;9.10;99.90;;;;;;5052939;28;20052;-73
2022/11/19 09:13:58;;;;;;;4.95;1.50;;;9.10;99.90;;;;;;5053264;28;20032;-73
2022/11/19 09:16:24;;;;;;;3.80;1.17;;;9.10;99.90;;;;;;5052432;28;20029;-73
2022/11/19 09:18:49;;;;;;;2.28;1.30;;;9.10;99.90;;;;;;5051898;28;20029;-72
2022/11/19 09:21:15;;;;;;;5.95;1.52;;;9.10;99.90;;;;;;5052366;28;20021;-73
2022/11/19 09:23:41;;;;;;;3.17;1.45;;;9.20;99.90;;;;;;5052918;28;20060;-73
2022/11/19 09:26:14;;;;;;;2.97;1.23;;;9.20;99.90;;;;;;5053370;28;20112;-73
2022/11/19 09:28:41;;;;;;;3.28;1.20;;;9.20;99.90;;;;;;5052506;28;20033;-73
2022/11/19 09:31:10;;;;;;;3.58;1.38;;;9.20;99.90;;;;;;5051515;28;20031;-73
2022/11/19 09:33:41;;;;;;;6.05;1.80;;;9.30;99.90;;;;;;5052344;28;20493;-73
2022/11/19 09:36:07;;;;;;;5.68;1.75;;;9.30;99.90;;;;;;5051438;28;20029;-72
2022/11/19 09:38:35;;;;;;;8.50;2.00;;;9.30;99.90;;;;;;5052448;28;20028;-72
2022/11/19 09:41:27;;;;;;;5.35;1.50;;;9.30;99.90;;;;;;5051285;28;20052;-73
2022/11/19 09:43:58;;;;;;;6.00;1.50;;;9.30;99.90;;;;;;5051148;28;20475;-72
2022/11/19 09:46:49;;;;;;;4.70;1.63;;;9.30;99.90;;;;;;5049327;28;20025;-73
2022/11/19 09:49:29;;;;;;;4.53;1.45;;;9.20;99.90;;;;;;5050198;28;20029;-72
2022/11/19 09:52:04;;;;;;;4.05;1.55;;;9.30;99.90;;;;;;5049935;28;20036;-75
2022/11/19 09:54:30;;;;;;;5.03;1.67;;;9.30;99.90;;;;;;5062702;28;20087;-75
2022/11/19 09:57:01;;;;;;;3.38;1.85;;;9.20;99.90;;;;;;5055438;28;20031;-78
2022/11/19 09:59:32;;;;;;;6.65;1.90;;;9.30;99.90;;;;;;5056891;28;20039;-74
2022/11/19 10:01:57;;;;;;;4.63;2.08;;;9.30;99.90;;;;;;5061662;28;20021;-74
2022/11/19 10:04:27;;;;;;;5.05;2.45;;;9.30;99.90;;;;;;5051128;28;20482;-73
2022/11/19 10:07:22;;;;;;;4.38;2.53;;;9.30;99.90;;;;;;5051445;28;20476;-73
2022/11/19 10:09:59;;;;;;;5.18;2.45;;;9.20;99.90;;;;;;5053963;28;20044;-73
2022/11/19 10:12:46;;;;;;;4.72;2.10;;;9.30;99.90;;;;;;5063416;28;20040;-74
2022/11/19 10:15:20;;;;;;;5.18;2.83;;;9.20;99.90;;;;;;5054357;28;20564;-75
2022/11/19 10:18:13;;;;;;;3.90;1.73;;;9.20;99.90;;;;;;5062989;28;20033;-73
2022/11/19 10:20:57;;;;;;;4.28;2.40;;;9.10;99.90;;;;;;5065445;28;20052;-75
2022/11/19 10:23:34;;;;;;;6.78;2.00;;;9.20;99.90;;;;;;5050422;28;20039;-76
2022/11/19 10:26:05;;;;;;;3.80;1.80;;;9.20;99.90;;;;;;5062076;28;20031;-76
2022/11/19 10:28:35;;;;;;;3.97;2.10;;;9.20;99.90;;;;;;5066186;28;20115;-75
2022/11/19 10:31:15;;;;;;;5.50;2.00;;;9.20;99.90;;;;;;5059141;28;20040;-76
2022/11/19 10:33:54;;;;;;;5.25;2.22;;;9.20;99.90;;;;;;5068370;28;20583;-75
2022/11/19 10:36:38;;;;;;;8.07;1.90;;;9.20;99.90;;;;;;5055663;28;20055;-75
2022/11/19 10:39:18;;;;;;;4.20;1.75;;;9.20;99.90;;;;;;5070866;28;20167;-75
2022/11/19 10:42:05;;;;;;;5.03;1.75;;;9.20;99.90;;;;;;5060866;28;20033;-74
2022/11/19 10:44:39;;;;;;;4.97;1.80;;;9.20;99.90;;;;;;5060982;28;20033;-74
2022/11/19 10:47:19;;;;;;;6.43;2.08;;;9.20;99.90;;;;;;5068513;28;20025;-74
2022/11/19 10:49:49;;;;;;;5.50;1.88;;;9.10;99.90;;;;;;5066072;28;20078;-73
2022/11/19 10:52:36;;;;;;;2.20;1.52;;;9.20;99.90;;;;;;5061489;28;20474;-75
2022/11/19 10:55:16;;;;;;;3.80;1.60;;;9.20;99.90;;;;;;5057640;28;20030;-76
2022/11/19 10:57:45;;;;;;;4.32;1.67;;;9.20;99.90;;;;;;5066405;28;20532;-74
2022/11/19 11:00:11;;;;;;;3.88;1.55;;;9.30;99.90;;;;;;5067117;28;20462;-78
2022/11/19 11:02:53;;;;;;;2.95;1.75;;;9.20;99.90;;;;;;5060394;28;20029;-75
2022/11/19 11:05:18;;;;;;;4.57;1.45;;;9.20;99.90;;;;;;5054791;28;20055;-75
2022/11/19 11:07:52;;;;;;;6.03;1.60;;;9.20;99.90;;;;;;5054605;28;20419;-76
2022/11/19 11:10:34;;;;;;;3.42;1.75;;;9.20;99.90;;;;;;5055842;28;20077;-75
2022/11/19 11:15:52;;;;;;;6.63;2.20;;;9.30;99.90;;;;;;5066520;28;20394;-77
2022/11/19 11:18:23;;;;;;;6.55;2.83;;;9.20;99.90;;;;;;5065941;28;20055;-76
2022/11/19 11:20:50;;;;;;;4.72;1.85;;;9.30;99.90;;;;;;5058938;28;20037;-76
2022/11/19 11:23:27;;;;;;;6.40;1.92;;;9.30;99.90;;;;;;5050823;28;20529;-76
2022/11/19 11:25:56;;;;;;;5.68;2.58;;;9.40;99.90;;;;;;5064803;28;20036;-76
2022/11/19 11:28:22;;;;;;;5.90;1.95;;;9.40;99.90;;;;;;5053558;28;20462;-75
2022/11/19 11:31:09;;;;;;;5.10;2.22;;;9.40;99.90;;;;;;5069876;28;20043;-75
2022/11/19 11:33:37;;;;;;;5.20;2.20;;;9.40;99.90;;;;;;5057124;28;20024;-75
2022/11/19 11:36:16;;;;;;;3.90;1.98;;;9.40;99.90;;;;;;5064779;28;20371;-75
2022/11/19 11:38:45;;;;;;;4.20;1.98;;;9.40;99.90;;;;;;5068625;28;20031;-75
2022/11/19 11:41:15;;;;;;;7.65;2.33;;;9.40;99.90;;;;;;5056177;28;20024;-75
2022/11/19 11:44:00;;;;;;;4.35;1.90;;;9.40;99.90;;;;;;5066386;28;20356;-76
2022/11/19 11:46:46;;;;;;;8.43;2.05;;;9.40;99.90;;;;;;5066534;28;20028;-76
2022/11/19 11:49:26;;;;;;;6.38;2.25;;;9.50;99.90;;;;;;5058312;28;20060;-74
2022/11/19 11:52:20;;;;;;;5.47;2.00;;;9.40;99.90;;;;;;5050081;28;20098;-75
2022/11/19 11:54:55;;;;;;;4.88;2.20;;;9.40;99.90;;;;;;5054422;28;20025;-75
2022/11/19 11:57:32;;;;;;;3.85;1.67;;;9.40;99.90;;;;;;5042337;28;20025;-75
2022/11/19 11:59:59;;;;;;;3.72;1.95;;;9.50;99.90;;;;;;5063634;28;20033;-75
2022/11/19 12:02:33;;;;;;;3.03;1.40;;;9.50;99.90;;;;;;5060354;28;20079;-75
2022/11/19 12:05:02;;;;;;;2.17;1.25;;;9.50;99.90;;;;;;5056574;28;20025;-76
2022/11/19 12:07:47;;;;;;;3.78;1.30;;;9.50;99.90;;;;;;5053847;28;20028;-75
2022/11/19 12:10:40;;;;;;;2.72;1.05;;;9.50;99.90;;;;;;5065558;28;20033;-76
2022/11/19 12:13:06;;;;;;;3.38;1.35;;;9.50;99.90;;;;;;5056841;28;20059;-76
2022/11/19 12:15:48;;;;;;;2.78;1.50;;;9.60;99.90;;;;;;5074237;28;20480;-75
2022/11/19 12:18:32;;;;;;;3.83;1.42;;;9.70;99.90;;;;;;5063000;28;20033;-74
2022/11/19 12:20:58;;;;;;;3.85;1.55;;;9.60;99.90;;;;;;5068026;28;20490;-76
2022/11/19 12:24:01;;;;;;;5.32;1.73;;;9.60;99.90;;;;;;5062760;28;20048;-79
2022/11/19 12:26:35;;;;;;;6.38;1.60;;;9.60;99.90;;;;;;5058939;28;20374;-76
2022/11/19 12:29:20;;;;;;;4.00;1.48;;;9.60;99.90;;;;;;5069233;28;20129;-75
2022/11/19 12:32:21;;;;;;;4.25;1.60;;;9.60;99.90;;;;;;5061450;28;20029;-75
2022/11/19 12:35:11;;;;;;;4.07;1.77;;;9.60;99.90;;;;;;5057757;28;20017;-75
2022/11/19 12:38:01;;;;;;;2.33;1.40;;;9.70;99.90;;;;;;5045376;28;20060;-75
2022/11/19 12:40:32;;;;;;;2.00;1.40;;;9.70;99.90;;;;;;5060077;28;20025;-75
2022/11/19 12:43:22;;;;;;;2.50;1.40;;;9.70;99.90;;;;;;5070317;28;20032;-77
2022/11/19 12:46:08;;;;;;;3.88;1.70;;;9.80;99.90;;;;;;5060160;28;20036;-75
2022/11/19 12:48:58;;;;;;;4.85;1.65;;;9.80;99.90;;;;;;5057837;28;20095;-75
2022/11/19 12:51:40;;;;;;;3.50;1.60;;;9.80;99.90;;;;;;5040890;28;20050;-75
2022/11/19 12:54:32;;;;;;;2.53;1.98;;;9.80;99.90;;;;;;5053130;28;20177;-75
2022/11/19 12:57:23;;;;;;;6.65;3.63;;;9.70;99.90;;;;;;5057339;28;20025;-76
2022/11/19 13:00:15;;;;;;;6.93;3.83;;;9.70;99.90;;;;;;5063578;28;20128;-75
2022/11/19 13:03:10;;;;;;;7.93;3.92;;;9.50;99.90;;;;;;5067172;28;20032;-75
2022/11/19 13:05:52;;;;;;;8.00;3.95;;;9.50;99.90;;;;;;5044531;28;20484;-75
2022/11/19 13:08:30;;;;;;;8.63;4.30;;;9.40;99.90;;;;;;5073663;28;20024;-75
2022/11/19 13:11:22;;;;;;;6.93;4.78;;;9.30;99.90;;;;;;5056604;28;20088;-75
2022/11/19 13:13:58;;;;;;;7.10;4.57;;;9.20;99.90;;;;;;5065053;28;20029;-75
2022/11/19 13:16:25;;;;;;;8.77;5.22;;;9.10;99.90;;;;;;5060077;28;20093;-76
2022/11/19 13:19:00;;;;;;;9.80;5.85;;;9.00;99.90;;;;;;5056389;28;20032;-75
2022/11/19 13:21:44;;;;;;;10.73;5.22;;;9.00;99.90;;;;;;5066583;28;20037;-81
2022/11/19 13:24:23;;;;;;;11.90;6.25;;;8.80;99.90;;;;;;5054096;28;20112;-75
2022/11/19 13:26:50;;;;;;;9.95;6.20;;;8.80;99.90;;;;;;5054797;28;20024;-74
2022/11/19 13:29:35;;;;;;;11.07;6.80;;;8.70;99.90;;;;;;5039038;28;20028;-75
2022/11/19 13:32:24;;;;;;;9.82;5.82;;;8.60;99.90;;;;;;5061771;28;20032;-76
2022/11/19 13:35:09;;;;;;;9.05;5.70;;;8.60;99.90;;;;;;5068956;28;20021;-78
2022/11/19 13:37:53;;;;;;;8.27;5.03;;;8.60;99.90;;;;;;5058745;28;20032;-74
2022/11/19 13:40:40;;;;;;;7.13;4.60;;;8.50;99.90;;;;;;5060190;28;20522;-75
2022/11/19 13:46:46;;;;;;;8.05;4.38;;;8.50;99.90;;;;;;5061940;28;20028;-75
2022/11/19 13:49:16;;;;;;;9.07;3.78;;;8.40;99.90;;;;;;5045568;28;20167;-74
2022/11/19 13:51:46;;;;;;;6.00;3.80;;;8.30;99.90;;;;;;5065066;28;20029;-76
2022/11/19 13:54:33;;;;;;;6.95;3.70;;;8.30;99.90;;;;;;5062503;28;20033;-76
2022/11/19 13:56:59;;;;;;;5.53;3.33;;;8.20;99.90;;;;;;5056274;28;20024;-76
2022/11/19 13:59:25;;;;;;;6.03;3.63;;;8.20;99.90;;;;;;5066228;28;20033;-76